Time;durP1;ratioP1;P1;durP2;ratioP2;P2;SDS_P1;SDS_P2;PMS_P1;PMS_P2;Temp;Humidity;BMP_temperature;BMP_pressure;BME280_temperature;BME280_humidity;BME280_pressure;Samples;Min_cycle;Max_cycle;Signal;HPM_P1;HPM_P2
2022/07/26 00:00:00;;;;;;;;;;;18.50;99.90;;;;;;5037118;28;19965;-80
2022/07/26 00:02:25;;;;;;;;;;;18.50;99.90;;;;;;5036850;28;19913;-82
2022/07/26 00:04:51;;;;;;;;;;;18.50;99.90;;;;;;5022987;28;19910;-79
2022/07/26 00:07:17;;;;;;;;;;;18.50;99.90;;;;;;5035215;28;20000;-79
2022/07/26 00:09:42;;;;;;;;;;;18.50;99.90;;;;;;5038208;28;19913;-79
2022/07/26 00:12:08;;;;;;;;;;;18.50;99.90;;;;;;5032068;28;20202;-78
2022/07/26 00:14:34;;;;;;;;;;;18.50;99.90;;;;;;5036945;28;19910;-78
2022/07/26 00:17:00;;;;;;;;;;;18.50;99.90;;;;;;5034742;28;19971;-79
2022/07/26 00:19:25;;;;;;;;;;;18.40;99.90;;;;;;5034218;28;19940;-81
2022/07/26 00:22:32;;;;;;;;;;;18.50;99.90;;;;;;5033949;28;19917;-80
2022/07/26 00:24:38;;;;;;;;;;;18.50;99.90;;;;;;5037467;28;19913;-78
2022/07/26 00:27:04;;;;;;;;;;;18.50;99.90;;;;;;5034459;28;20061;-81
2022/07/26 00:29:29;;;;;;;;;;;18.50;99.90;;;;;;5036973;28;20003;-78
2022/07/26 00:31:55;;;;;;;;;;;18.50;99.90;;;;;;5036667;28;19917;-80
2022/07/26 00:34:20;;;;;;;;;;;18.60;99.90;;;;;;5035706;28;19942;-81
2022/07/26 00:36:46;;;;;;;;;;;18.60;99.90;;;;;;5035243;28;20038;-79
2022/07/26 00:39:11;;;;;;;;;;;18.60;99.90;;;;;;5035442;28;19917;-79
2022/07/26 00:41:37;;;;;;;;;;;18.70;99.90;;;;;;5036510;28;20003;-81
2022/07/26 00:44:03;;;;;;;;;;;18.70;99.90;;;;;;5035609;28;20028;-79
2022/07/26 00:46:28;;;;;;;;;;;18.70;99.90;;;;;;5052991;28;19979;-80
2022/07/26 00:48:54;;;;;;;;;;;18.70;99.90;;;;;;5033880;28;19917;-80
2022/07/26 00:51:20;;;;;;;;;;;18.70;99.90;;;;;;5032071;28;19917;-82
2022/07/26 00:53:45;;;;;;;;;;;18.70;99.90;;;;;;5035329;28;19924;-79
2022/07/26 00:56:13;;;;;;;;;;;18.70;99.90;;;;;;5035238;28;19913;-80
2022/07/26 00:58:39;;;;;;;;;;;18.70;99.90;;;;;;5033999;28;19913;-79
2022/07/26 01:01:04;;;;;;;;;;;18.80;99.90;;;;;;5035695;28;19913;-78
2022/07/26 01:03:30;;;;;;;;;;;18.80;99.90;;;;;;5035962;28;19909;-80
2022/07/26 01:05:55;;;;;;;;;;;18.70;99.90;;;;;;5035921;28;19940;-80
2022/07/26 01:08:21;;;;;;;;;;;18.70;99.90;;;;;;5035969;28;19920;-79
2022/07/26 01:10:46;;;;;;;;;;;18.70;99.90;;;;;;5037137;28;20208;-79
2022/07/26 01:13:17;;;;;;;;;;;18.60;99.90;;;;;;5035775;28;19920;-79
2022/07/26 01:15:43;;;;;;;;;;;18.60;99.90;;;;;;5035179;28;19947;-76
2022/07/26 01:18:08;;;;;;;;;;;18.50;99.90;;;;;;5049463;28;19917;-81
2022/07/26 01:20:34;;;;;;;;;;;18.50;99.90;;;;;;5034556;28;19913;-77
2022/07/26 01:22:59;;;;;;;;;;;18.40;99.90;;;;;;5031405;28;19917;-78
2022/07/26 01:25:32;;;;;;;;;;;18.40;99.90;;;;;;5035144;28;19921;-81
2022/07/26 01:27:58;;;;;;;;;;;18.40;99.90;;;;;;5034292;28;20296;-80
2022/07/26 01:30:24;;;;;;;;;;;18.50;99.90;;;;;;5035487;28;19936;-79
2022/07/26 01:32:49;;;;;;;;;;;18.50;99.90;;;;;;5035025;28;19924;-78
2022/07/26 01:35:15;;;;;;;;;;;18.50;99.90;;;;;;5033444;28;20310;-79
2022/07/26 01:37:40;;;;;;;;;;;18.40;99.90;;;;;;5034822;28;20003;-77
2022/07/26 01:40:06;;;;;;;;;;;18.30;99.90;;;;;;5036093;28;20304;-78
2022/07/26 01:42:32;;;;;;;;;;;18.30;99.90;;;;;;5035689;28;20331;-79
2022/07/26 01:44:57;;;;;;;;;;;18.20;99.90;;;;;;5036409;28;19913;-78
2022/07/26 01:47:23;;;;;;;;;;;18.10;99.90;;;;;;5031821;28;19921;-78
2022/07/26 01:49:48;;;;;;;;;;;18.10;99.90;;;;;;5035695;28;20379;-79
2022/07/26 01:52:14;;;;;;;;;;;18.10;99.90;;;;;;5032444;28;21521;-78
2022/07/26 01:54:39;;;;;;;;;;;18.10;99.90;;;;;;5035389;28;19921;-83
2022/07/26 01:57:05;;;;;;;;;;;18.00;99.90;;;;;;5033479;28;20255;-79
2022/07/26 01:59:31;;;;;;;;;;;18.00;99.90;;;;;;5033763;28;19909;-78
2022/07/26 02:01:56;;;;;;;;;;;17.80;99.90;;;;;;5035190;28;20220;-79
2022/07/26 02:07:06;;;;;;;;;;;17.80;99.90;;;;;;5035380;28;19959;-78
2022/07/26 02:09:31;;;;;;;;;;;17.80;99.90;;;;;;5033087;28;19956;-77
2022/07/26 02:11:57;;;;;;;;;;;17.90;99.90;;;;;;5035505;28;19939;-81
2022/07/26 02:14:22;;;;;;;;;;;17.80;99.90;;;;;;5020364;28;19960;-79
2022/07/26 02:16:48;;;;;;;;;;;17.80;99.90;;;;;;5034557;28;19949;-78
2022/07/26 02:19:14;;;;;;;;;;;17.80;99.90;;;;;;5033756;28;20264;-77
2022/07/26 02:21:39;;;;;;;;;;;17.70;99.90;;;;;;5033010;28;19917;-78
2022/07/26 02:24:06;;;;;;;;;;;17.60;99.90;;;;;;5030777;28;19923;-78
2022/07/26 02:26:31;;;;;;;;;;;17.50;99.90;;;;;;5035209;28;19917;-78
2022/07/26 02:28:57;;;;;;;;;;;17.50;99.90;;;;;;5033298;28;20342;-78
2022/07/26 02:31:22;;;;;;;;;;;17.40;99.90;;;;;;5026790;28;19917;-79
2022/07/26 02:33:48;;;;;;;;;;;17.30;99.90;;;;;;5035098;28;20296;-78
2022/07/26 02:36:13;;;;;;;;;;;17.30;99.90;;;;;;5032626;28;20332;-78
2022/07/26 02:38:39;;;;;;;;;;;17.20;99.90;;;;;;5032033;28;19934;-78
2022/07/26 02:41:05;;;;;;;;;;;17.20;99.90;;;;;;5032572;28;20354;-78
2022/07/26 02:43:31;;;;;;;;;;;17.10;99.90;;;;;;5034464;28;19917;-79
2022/07/26 02:45:56;;;;;;;;;;;17.20;99.90;;;;;;5033482;28;19940;-79
2022/07/26 02:48:22;;;;;;;;;;;17.20;99.90;;;;;;5033816;28;20305;-78
2022/07/26 02:50:47;;;;;;;;;;;17.30;99.90;;;;;;5033053;28;19928;-79
2022/07/26 02:53:13;;;;;;;;;;;17.40;99.90;;;;;;5033329;28;20320;-78
2022/07/26 02:55:38;;;;;;;;;;;17.30;99.90;;;;;;5031755;28;20308;-81
2022/07/26 02:58:04;;;;;;;;;;;17.30;99.90;;;;;;5034253;28;19983;-78
2022/07/26 03:00:29;;;;;;;;;;;17.30;99.90;;;;;;5031657;28;19924;-79
2022/07/26 03:02:55;;;;;;;;;;;17.30;99.90;;;;;;5034986;28;19913;-78
2022/07/26 03:05:21;;;;;;;;;;;17.30;99.90;;;;;;5034530;28;19936;-78
2022/07/26 03:07:47;;;;;;;;;;;17.30;99.90;;;;;;5023152;28;19952;-78
2022/07/26 03:10:12;;;;;;;;;;;17.30;99.90;;;;;;5032062;28;19963;-79
2022/07/26 03:12:38;;;;;;;;;;;17.30;99.90;;;;;;5032408;28;19913;-79
2022/07/26 03:15:04;;;;;;;;;;;17.30;99.90;;;;;;5034192;28;19917;-79
2022/07/26 03:17:30;;;;;;;;;;;17.20;99.90;;;;;;5033141;28;19917;-82
2022/07/26 03:19:55;;;;;;;;;;;17.30;99.90;;;;;;5033117;28;19913;-80
2022/07/26 03:22:21;;;;;;;;;;;17.30;99.90;;;;;;5033258;28;19917;-79
2022/07/26 03:24:46;;;;;;;;;;;17.30;99.90;;;;;;5031570;28;19917;-78
2022/07/26 03:27:12;;;;;;;;;;;17.30;99.90;;;;;;5030260;28;19944;-77
2022/07/26 03:29:38;;;;;;;;;;;17.30;99.90;;;;;;5033333;28;19924;-79
2022/07/26 03:32:03;;;;;;;;;;;17.30;99.90;;;;;;5029388;28;19921;-78
2022/07/26 03:34:29;;;;;;;;;;;17.30;99.90;;;;;;5031121;28;20316;-77
2022/07/26 03:36:54;;;;;;;;;;;17.30;99.90;;;;;;5027183;28;19917;-78
2022/07/26 03:39:20;;;;;;;;;;;17.30;99.90;;;;;;5027125;28;19951;-79
2022/07/26 03:41:45;;;;;;;;;;;17.30;99.90;;;;;;5033811;28;19932;-79
2022/07/26 03:44:11;;;;;;;;;;;17.30;99.90;;;;;;5033431;28;20323;-77
2022/07/26 03:46:36;;;;;;;;;;;17.30;99.90;;;;;;5033765;28;19914;-78
2022/07/26 03:49:02;;;;;;;;;;;17.30;99.90;;;;;;5034277;28;19959;-78
2022/07/26 03:51:28;;;;;;;;;;;17.20;99.90;;;;;;5033698;28;19913;-78
2022/07/26 03:53:53;;;;;;;;;;;17.20;99.90;;;;;;5015102;28;19921;-79
2022/07/26 03:56:30;;;;;;;;;;;17.20;99.90;;;;;;5032654;28;20011;-79
2022/07/26 03:58:59;;;;;;;;;;;17.10;99.90;;;;;;5033135;28;19917;-78
2022/07/26 04:01:25;;;;;;;;;;;17.20;99.90;;;;;;5031553;28;20280;-76
2022/07/26 04:03:51;;;;;;;;;;;17.20;99.90;;;;;;5016601;28;20015;-74
2022/07/26 04:06:16;;;;;;;;;;;17.20;99.90;;;;;;5031911;28;19960;-72
2022/07/26 04:08:42;;;;;;;;;;;17.20;99.90;;;;;;5035302;28;19953;-72
2022/07/26 04:11:08;;;;;;;;;;;17.10;99.90;;;;;;5041607;28;19917;-72
2022/07/26 04:13:34;;;;;;;;;;;17.10;99.90;;;;;;5044303;28;19913;-73
2022/07/26 04:16:00;;;;;;;;;;;17.10;99.90;;;;;;5041031;28;19921;-75
2022/07/26 04:18:25;;;;;;;;;;;17.10;99.90;;;;;;5042667;28;20327;-74
2022/07/26 04:20:51;;;;;;;;;;;17.10;99.90;;;;;;5053092;28;19913;-73
2022/07/26 04:23:17;;;;;;;;;;;17.20;99.90;;;;;;5053488;28;19923;-73
2022/07/26 04:25:43;;;;;;;;;;;17.10;99.90;;;;;;5049990;28;20263;-73
2022/07/26 04:28:09;;;;;;;;;;;17.10;99.90;;;;;;5045287;28;19967;-72
2022/07/26 04:30:34;;;;;;;;;;;17.10;99.90;;;;;;5048150;28;19924;-72
2022/07/26 04:33:00;;;;;;;;;;;17.20;99.90;;;;;;5036527;28;19924;-73
2022/07/26 04:35:25;;;;;;;;;;;17.10;99.90;;;;;;5041548;28;19917;-73
2022/07/26 04:37:51;;;;;;;;;;;17.10;99.90;;;;;;5035733;28;19932;-74
2022/07/26 04:40:18;;;;;;;;;;;17.10;99.90;;;;;;5042193;28;19947;-73
2022/07/26 04:42:44;;;;;;;;;;;17.10;99.90;;;;;;5038262;28;20327;-75
2022/07/26 04:45:11;;;;;;;;;;;17.10;99.90;;;;;;5034049;28;19918;-75
2022/07/26 04:47:39;;;;;;;;;;;17.00;99.90;;;;;;5033212;28;19924;-75
2022/07/26 04:50:05;;;;;;;;;;;17.00;99.90;;;;;;5035835;28;19917;-76
2022/07/26 04:52:30;;;;;;;;;;;17.00;99.90;;;;;;5034208;28;19924;-75
2022/07/26 04:54:56;;;;;;;;;;;16.90;99.90;;;;;;5035162;28;19913;-76
2022/07/26 04:57:22;;;;;;;;;;;16.90;99.90;;;;;;5034302;28;19924;-75
2022/07/26 04:59:47;;;;;;;;;;;16.90;99.90;;;;;;5036456;28;20326;-76
2022/07/26 05:02:14;;;;;;;;;;;16.90;99.90;;;;;;5035745;28;19935;-77
2022/07/26 05:04:40;;;;;;;;;;;16.90;99.90;;;;;;5033988;28;20334;-76
2022/07/26 05:07:06;;;;;;;;;;;16.80;99.90;;;;;;5034424;28;20316;-78
2022/07/26 05:09:32;;;;;;;;;;;16.80;99.90;;;;;;5036457;28;19928;-76
2022/07/26 05:11:57;;;;;;;;;;;16.90;99.90;;;;;;5037593;28;19921;-75
2022/07/26 05:14:23;;;;;;;;;;;16.80;99.90;;;;;;5034013;28;19913;-75
2022/07/26 05:16:48;;;;;;;;;;;16.80;99.90;;;;;;5038300;28;19921;-75
2022/07/26 05:19:14;;;;;;;;;;;16.80;99.90;;;;;;5035942;28;19921;-75
2022/07/26 05:21:39;;;;;;;;;;;16.80;99.90;;;;;;5035183;28;19951;-75
2022/07/26 05:24:05;;;;;;;;;;;16.70;99.90;;;;;;5036343;28;20334;-75
2022/07/26 05:26:31;;;;;;;;;;;16.80;99.90;;;;;;5035333;28;19925;-77
2022/07/26 05:28:56;;;;;;;;;;;16.70;99.90;;;;;;5041753;28;19920;-74
2022/07/26 05:31:22;;;;;;;;;;;16.70;99.90;;;;;;5044289;28;19975;-76
2022/07/26 05:33:47;;;;;;;;;;;16.70;99.90;;;;;;5034494;28;20003;-75
2022/07/26 05:36:13;;;;;;;;;;;16.70;99.90;;;;;;5036904;28;19967;-74
2022/07/26 05:38:38;;;;;;;;;;;16.70;99.90;;;;;;5036052;28;20016;-75
2022/07/26 05:41:04;;;;;;;;;;;16.80;99.90;;;;;;5033136;28;20283;-75
2022/07/26 05:43:30;;;;;;;;;;;16.80;99.90;;;;;;5034808;28;20362;-76
2022/07/26 05:45:56;;;;;;;;;;;16.80;99.90;;;;;;5035114;28;19970;-77
2022/07/26 05:48:22;;;;;;;;;;;16.80;99.90;;;;;;5033075;28;19921;-75
2022/07/26 05:50:47;;;;;;;;;;;16.80;99.90;;;;;;5032599;28;19921;-75
2022/07/26 05:53:13;;;;;;;;;;;16.80;99.90;;;;;;5034683;28;19913;-75
2022/07/26 05:55:38;;;;;;;;;;;16.80;99.90;;;;;;5034169;28;20316;-75
2022/07/26 05:58:04;;;;;;;;;;;16.80;99.90;;;;;;5033783;28;19928;-76
2022/07/26 06:00:29;;;;;;;;;;;16.80;99.90;;;;;;5034493;28;20011;-78
2022/07/26 06:02:55;;;;;;;;;;;16.90;99.90;;;;;;5034160;28;20228;-79
2022/07/26 06:05:20;;;;;;;;;;;16.90;99.90;;;;;;5034781;28;20324;-80
2022/07/26 06:07:46;;;;;;;;;;;17.00;99.90;;;;;;5034512;28;19935;-76
2022/07/26 06:10:11;;;;;;;;;;;17.10;99.90;;;;;;5033439;28;19924;-75
2022/07/26 06:12:37;;;;;;;;;;;17.10;99.90;;;;;;5035532;28;19920;-77
2022/07/26 06:15:03;;;;;;;;;;;17.10;99.90;;;;;;5033052;28;20035;-78
2022/07/26 06:17:28;;;;;;;;;;;16.90;99.90;;;;;;5037686;28;19916;-85
2022/07/26 06:19:55;;;;;;;;;;;16.70;99.90;;;;;;5036152;28;20304;-80
2022/07/26 06:22:20;;;;;;;;;;;16.60;99.90;;;;;;5032969;28;19917;-78
2022/07/26 06:24:46;;;;;;;;;;;16.40;99.90;;;;;;5033360;28;19924;-78
2022/07/26 06:27:11;;;;;;;;;;;16.40;99.90;;;;;;5035263;28;19920;-83
2022/07/26 06:29:37;;;;;;;;;;;16.50;99.90;;;;;;5030932;28;19924;-86
2022/07/26 06:32:02;;;;;;;;;;;16.50;99.90;;;;;;5032057;28;20008;-79
2022/07/26 06:34:28;;;;;;;;;;;16.60;99.90;;;;;;5034153;28;20008;-82
2022/07/26 06:36:53;;;;;;;;;;;16.60;99.90;;;;;;5033436;28;20243;-87
2022/07/26 06:39:20;;;;;;;;;;;16.70;99.90;;;;;;5035815;28;20322;-83
2022/07/26 06:41:45;;;;;;;;;;;16.70;99.90;;;;;;5032705;28;19940;-81
2022/07/26 06:44:11;;;;;;;;;;;16.70;99.90;;;;;;5032910;28;19913;-81
2022/07/26 06:46:36;;;;;;;;;;;16.80;99.90;;;;;;5033362;28;19917;-84
2022/07/26 06:49:02;;;;;;;;;;;16.80;99.90;;;;;;5029710;28;19913;-88
2022/07/26 06:51:28;;;;;;;;;;;16.90;99.90;;;;;;5032920;28;19991;-80
2022/07/26 06:53:53;;;;;;;;;;;17.00;99.90;;;;;;5031186;28;20384;-83
2022/07/26 06:56:19;;;;;;;;;;;17.00;99.90;;;;;;5033238;28;19914;-80
2022/07/26 06:58:44;;;;;;;;;;;17.00;99.90;;;;;;5034143;28;19967;-81
2022/07/26 07:01:10;;;;;;;;;;;17.10;99.90;;;;;;5035426;28;19966;-86
2022/07/26 07:03:36;;;;;;;;;;;17.10;99.90;;;;;;5033519;28;19988;-79
2022/07/26 07:06:01;;;;;;;;;;;17.10;99.90;;;;;;5034069;28;20352;-83
2022/07/26 07:08:27;;;;;;;;;;;17.10;99.90;;;;;;5033717;28;19917;-86
2022/07/26 07:10:54;;;;;;;;;;;17.10;99.90;;;;;;5033807;28;20276;-83
2022/07/26 07:13:20;;;;;;;;;;;17.10;99.90;;;;;;5033382;28;19922;-86
2022/07/26 07:15:46;;;;;;;;;;;17.20;99.90;;;;;;5033736;28;19928;-80
2022/07/26 07:18:11;;;;;;;;;;;17.20;99.90;;;;;;5035090;28;20004;-82
2022/07/26 07:20:38;;;;;;;;;;;17.20;99.90;;;;;;5033914;28;19921;-84
2022/07/26 07:23:03;;;;;;;;;;;17.30;99.90;;;;;;5034284;28;19921;-83
2022/07/26 07:25:29;;;;;;;;;;;17.30;99.90;;;;;;5032703;28;19924;-76
2022/07/26 07:27:55;;;;;;;;;;;17.40;99.90;;;;;;5031385;28;19921;-84
2022/07/26 07:30:20;;;;;;;;;;;17.50;99.90;;;;;;5036220;28;19944;-79
2022/07/26 07:32:46;;;;;;;;;;;17.50;99.90;;;;;;5025715;28;19919;-81
2022/07/26 07:35:11;;;;;;;;;;;17.50;99.90;;;;;;5026364;28;20639;-83
2022/07/26 07:37:37;;;;;;;;;;;17.60;99.90;;;;;;5027745;28;19920;-81
2022/07/26 07:40:07;;;;;;;;;;;17.70;99.90;;;;;;5029518;28;19970;-80
2022/07/26 07:42:32;;;;;;;;;;;17.70;99.90;;;;;;5028189;28;19925;-81
2022/07/26 07:44:58;;;;;;;;;;;17.80;99.90;;;;;;5031076;28;19920;-81
2022/07/26 07:47:23;;;;;;;;;;;17.80;99.90;;;;;;5032038;28;19921;-79
2022/07/26 07:49:49;;;;;;;;;;;17.70;99.90;;;;;;5028561;28;20020;-87
2022/07/26 07:52:14;;;;;;;;;;;17.50;99.90;;;;;;5032600;28;19917;-83
2022/07/26 07:54:40;;;;;;;;;;;17.20;99.90;;;;;;5034778;28;20216;-80
2022/07/26 07:57:06;;;;;;;;;;;17.10;99.90;;;;;;5037226;28;19939;-79
2022/07/26 07:59:31;;;;;;;;;;;17.10;99.90;;;;;;5036634;28;19939;-81
2022/07/26 08:01:57;;;;;;;;;;;17.30;99.90;;;;;;5019546;28;19917;-80
2022/07/26 08:04:23;;;;;;;;;;;17.40;99.90;;;;;;5036388;28;19995;-82
2022/07/26 08:06:49;;;;;;;;;;;17.50;99.90;;;;;;5037975;28;20007;-86
2022/07/26 08:09:14;;;;;;;;;;;17.60;99.90;;;;;;5035105;28;19921;-79
2022/07/26 08:11:40;;;;;;;;;;;17.60;99.90;;;;;;5036543;28;20375;-80
2022/07/26 08:14:06;;;;;;;;;;;17.60;99.90;;;;;;5036466;28;19920;-80
2022/07/26 08:16:31;;;;;;;;;;;17.50;99.90;;;;;;5033797;28;20028;-79
2022/07/26 08:18:57;;;;;;;;;;;17.60;99.90;;;;;;5037885;28;20000;-80
2022/07/26 08:21:22;;;;;;;;;;;17.70;99.90;;;;;;5036238;28;20016;-80
2022/07/26 08:23:48;;;;;;;;;;;17.80;99.90;;;;;;5034608;28;20007;-84
2022/07/26 08:26:17;;;;;;;;;;;18.00;99.90;;;;;;5035005;28;20132;-77
2022/07/26 08:28:43;;;;;;;;;;;18.10;99.90;;;;;;5034689;28;20434;-82
2022/07/26 08:31:08;;;;;;;;;;;18.30;99.90;;;;;;5037309;28;19925;-83
2022/07/26 08:33:34;;;;;;;;;;;18.10;99.90;;;;;;5036360;28;20038;-80
2022/07/26 08:35:59;;;;;;;;;;;18.10;99.90;;;;;;5033907;28;19917;-84
2022/07/26 08:38:25;;;;;;;;;;;18.20;99.90;;;;;;5036777;28;19913;-76
2022/07/26 08:40:51;;;;;;;;;;;18.40;99.90;;;;;;5035855;28;19913;-81
2022/07/26 08:43:16;;;;;;;;;;;18.60;99.90;;;;;;5043359;28;19913;-79
2022/07/26 08:45:44;;;;;;;;;;;18.70;99.90;;;;;;5050520;28;20001;-82
2022/07/26 08:48:10;;;;;;;;;;;19.00;99.90;;;;;;5039057;28;19970;-83
2022/07/26 08:50:35;;;;;;;;;;;19.00;99.90;;;;;;5036731;28;19971;-80
2022/07/26 08:53:05;;;;;;;;;;;18.90;99.90;;;;;;5037716;28;20254;-76
2022/07/26 08:55:31;;;;;;;;;;;19.00;99.90;;;;;;5036262;28;19928;-77
2022/07/26 08:57:56;;;;;;;;;;;18.90;99.90;;;;;;5035709;28;19913;-81
2022/07/26 09:00:29;;;;;;;;;;;18.80;99.90;;;;;;5034780;28;20363;-74
2022/07/26 09:02:55;;;;;;;;;;;18.70;99.90;;;;;;5032864;28;19913;-80
2022/07/26 09:05:27;;;;;;;;;;;18.70;99.90;;;;;;5037207;28;19920;-78
2022/07/26 09:07:52;;;;;;;;;;;18.60;99.90;;;;;;5051260;28;19913;-75
2022/07/26 09:10:18;;;;;;;;;;;18.70;99.90;;;;;;5034490;28;19917;-79
2022/07/26 09:12:44;;;;;;;;;;;18.70;99.90;;;;;;5017918;28;20023;-79
2022/07/26 09:15:18;;;;;;;;;;;18.80;99.90;;;;;;5035972;28;20006;-83
2022/07/26 09:17:45;;;;;;;;;;;18.60;99.90;;;;;;5035529;28;19921;-85
2022/07/26 09:20:12;;;;;;;;;;;18.90;99.90;;;;;;5035655;28;19921;-78
2022/07/26 09:22:54;;;;;;;;;;;19.00;99.90;;;;;;5034959;28;19956;-80
2022/07/26 09:25:20;;;;;;;;;;;19.10;99.90;;;;;;5033521;28;19913;-83
2022/07/26 09:27:46;;;;;;;;;;;18.90;99.90;;;;;;5034362;28;19964;-77
2022/07/26 09:30:12;;;;;;;;;;;19.00;99.90;;;;;;5035540;28;19940;-87
2022/07/26 09:32:37;;;;;;;;;;;19.20;99.90;;;;;;5033225;28;19913;-82
2022/07/26 09:35:11;;;;;;;;;;;19.40;99.90;;;;;;5034980;28;19983;-80
2022/07/26 09:37:38;;;;;;;;;;;19.30;99.90;;;;;;5034664;28;19917;-82
2022/07/26 09:40:08;;;;;;;;;;;19.30;99.90;;;;;;5034917;28;19967;-83
2022/07/26 09:42:33;;;;;;;;;;;18.90;99.90;;;;;;5036078;28;19913;-78
2022/07/26 09:44:59;;;;;;;;;;;18.50;99.90;;;;;;5035169;28;19909;-81
2022/07/26 09:47:35;;;;;;;;;;;18.00;99.90;;;;;;5032379;28;19932;-83
2022/07/26 09:50:27;;;;;;;;;;;17.80;99.90;;;;;;5050502;28;20003;-78
2022/07/26 09:53:02;;;;;;;;;;;17.80;99.90;;;;;;5032893;28;19924;-79
2022/07/26 09:55:28;;;;;;;;;;;17.80;99.90;;;;;;5035694;28;19968;-77
2022/07/26 09:57:54;;;;;;;;;;;17.90;99.90;;;;;;5034675;28;19961;-78
2022/07/26 10:00:20;;;;;;;;;;;17.90;99.90;;;;;;5034623;28;19970;-79
2022/07/26 10:02:45;;;;;;;;;;;17.80;99.90;;;;;;5037448;28;19959;-87
2022/07/26 10:05:11;;;;;;;;;;;17.90;99.90;;;;;;5034325;28;19971;-81
2022/07/26 10:07:37;;;;;;;;;;;17.90;99.90;;;;;;5031638;28;19917;-80
2022/07/26 10:10:06;;;;;;;;;;;18.00;99.90;;;;;;5029384;28;19936;-84
2022/07/26 10:12:31;;;;;;;;;;;18.00;99.90;;;;;;5031255;28;19913;-81
2022/07/26 10:14:57;;;;;;;;;;;18.10;99.90;;;;;;5030208;28;19917;-82
2022/07/26 10:17:25;;;;;;;;;;;18.40;99.90;;;;;;5031465;28;19921;-77
2022/07/26 10:19:54;;;;;;;;;;;18.30;99.90;;;;;;5028371;28;19917;-81
2022/07/26 10:22:24;;;;;;;;;;;18.60;99.90;;;;;;5034085;28;19917;-81
2022/07/26 10:24:51;;;;;;;;;;;18.90;99.90;;;;;;5030944;28;19921;-78
2022/07/26 10:27:35;;;;;;;;;;;19.10;99.90;;;;;;5031311;28;20004;-74
2022/07/26 10:30:16;;;;;;;;;;;19.00;99.90;;;;;;5044608;28;19999;-78
2022/07/26 10:32:51;;;;;;;;;;;19.20;99.90;;;;;;5031386;28;19976;-79
2022/07/26 10:35:29;;;;;;;;;;;19.30;99.90;;;;;;5031230;28;19966;-78
2022/07/26 10:38:04;;;;;;;;;;;19.30;99.90;;;;;;5030627;28;19966;-79
2022/07/26 10:40:30;;;;;;;;;;;19.50;99.90;;;;;;5030828;28;19921;-79
2022/07/26 10:43:28;;;;;;;;;;;19.50;99.90;;;;;;5027087;28;20248;-80
2022/07/26 10:46:11;;;;;;;;;;;19.40;99.90;;;;;;4998594;28;19951;-80
2022/07/26 10:48:54;;;;;;;;;;;19.20;99.90;;;;;;5017118;28;20246;-79
2022/07/26 10:51:24;;;;;;;;;;;19.00;99.90;;;;;;5020364;28;19987;-81
2022/07/26 10:53:57;;;;;;;;;;;19.20;99.90;;;;;;5006471;28;20027;-82
2022/07/26 10:56:23;;;;;;;;;;;19.10;99.90;;;;;;5020445;28;19921;-81
2022/07/26 10:58:48;;;;;;;;;;;19.10;99.90;;;;;;5023094;28;20015;-85
2022/07/26 11:01:14;;;;;;;;;;;18.90;99.90;;;;;;5016092;28;20332;-79
2022/07/26 11:03:41;;;;;;;;;;;18.80;99.90;;;;;;5001379;28;19932;-77
2022/07/26 11:06:16;;;;;;;;;;;18.60;99.90;;;;;;4982595;28;19925;-80
2022/07/26 11:08:43;;;;;;;;;;;18.50;99.90;;;;;;4983181;28;19918;-76
2022/07/26 11:11:09;;;;;;;;;;;18.50;99.90;;;;;;5002903;28;20024;-85
2022/07/26 11:13:37;;;;;;;;;;;18.30;99.90;;;;;;5011872;28;20091;-76
2022/07/26 11:16:03;;;;;;;;;;;18.20;99.90;;;;;;5005557;28;20249;-83
2022/07/26 11:18:31;;;;;;;;;;;18.20;99.90;;;;;;5003675;28;20019;-83
2022/07/26 11:21:07;;;;;;;;;;;18.20;99.90;;;;;;5008419;28;20008;-81
2022/07/26 11:23:34;;;;;;;;;;;18.20;99.90;;;;;;5032791;28;19917;-80
2022/07/26 11:26:00;;;;;;;;;;;18.30;99.90;;;;;;5029686;28;19924;-78
2022/07/26 11:28:25;;;;;;;;;;;18.30;99.90;;;;;;5031765;28;19960;-81
2022/07/26 11:30:55;;;;;;;;;;;18.40;99.90;;;;;;5035849;28;20406;-77
2022/07/26 11:33:33;;;;;;;;;;;18.30;99.90;;;;;;5016885;28;20011;-78
2022/07/26 11:35:58;;;;;;;;;;;18.30;99.90;;;;;;5038410;28;19921;-84
2022/07/26 11:38:24;;;;;;;;;;;18.00;99.90;;;;;;5042196;28;19925;-82
2022/07/26 11:40:49;;;;;;;;;;;18.10;99.90;;;;;;5042161;28;19928;-84
2022/07/26 11:43:15;;;;;;;;;;;18.20;99.90;;;;;;5033159;28;19917;-83
2022/07/26 11:45:41;;;;;;;;;;;18.30;99.90;;;;;;5037898;28;19945;-82
2022/07/26 11:48:06;;;;;;;;;;;18.40;99.90;;;;;;5036415;28;20023;-86
2022/07/26 11:50:32;;;;;;;;;;;18.70;99.90;;;;;;5036880;28;20223;-81
2022/07/26 11:52:57;;;;;;;;;;;19.00;99.90;;;;;;5034962;28;19920;-82
2022/07/26 11:55:29;;;;;;;;;;;19.10;99.90;;;;;;5036536;28;19919;-81
2022/07/26 11:57:55;;;;;;;;;;;19.10;99.90;;;;;;5054652;28;20311;-85
2022/07/26 12:00:22;;;;;;;;;;;19.10;99.90;;;;;;5035746;28;19913;-78
2022/07/26 12:02:47;;;;;;;;;;;19.10;99.90;;;;;;5037698;28;20342;-78
2022/07/26 12:05:17;;;;;;;;;;;19.20;99.90;;;;;;5036791;28;19913;-78
2022/07/26 12:07:53;;;;;;;;;;;19.20;99.90;;;;;;5037096;28;20324;-81
2022/07/26 12:10:19;;;;;;;;;;;19.20;99.90;;;;;;5034686;28;19967;-77
2022/07/26 12:12:45;;;;;;;;;;;19.10;99.90;;;;;;5032468;28;19917;-75
2022/07/26 12:15:12;;;;;;;;;;;19.10;99.90;;;;;;5033834;28;19924;-80
2022/07/26 12:17:37;;;;;;;;;;;19.10;99.90;;;;;;5033902;28;19917;-83
2022/07/26 12:20:29;;;;;;;;;;;19.00;99.90;;;;;;5037377;28;19914;-81
2022/07/26 12:22:59;;;;;;;;;;;19.10;99.90;;;;;;5031247;28;20300;-83
2022/07/26 12:25:26;;;;;;;;;;;19.10;99.90;;;;;;5032404;28;20012;-79
2022/07/26 12:28:14;;;;;;;;;;;19.40;99.90;;;;;;5038368;28;19913;-79
2022/07/26 12:30:40;;;;;;;;;;;19.60;99.90;;;;;;5058135;28;19972;-81
2022/07/26 12:33:05;;;;;;;;;;;19.90;99.90;;;;;;5051064;28;19921;-81
2022/07/26 12:35:34;;;;;;;;;;;20.40;99.90;;;;;;5035194;28;19913;-83
2022/07/26 12:38:00;;;;;;;;;;;20.50;99.90;;;;;;5035247;28;19958;-88
2022/07/26 12:40:26;;;;;;;;;;;20.50;99.90;;;;;;5032109;28;19917;-80
2022/07/26 12:42:56;;;;;;;;;;;20.40;99.90;;;;;;5037427;28;19917;-78
2022/07/26 12:45:26;;;;;;;;;;;20.40;99.90;;;;;;5035521;28;20371;-85
2022/07/26 12:47:53;;;;;;;;;;;20.40;99.90;;;;;;5036964;28;19909;-74
2022/07/26 12:50:19;;;;;;;;;;;20.50;99.90;;;;;;5036860;28;19917;-84
2022/07/26 12:52:45;;;;;;;;;;;20.50;99.90;;;;;;5039951;28;19923;-76
2022/07/26 12:55:14;;;;;;;;;;;20.40;99.90;;;;;;5037531;28;20309;-81
2022/07/26 12:57:40;;;;;;;;;;;20.20;99.90;;;;;;5049213;28;19920;-79
2022/07/26 13:00:06;;;;;;;;;;;20.10;99.90;;;;;;5034120;28;20020;-79
2022/07/26 13:02:32;;;;;;;;;;;20.00;99.90;;;;;;5027967;28;20103;-81
2022/07/26 13:04:59;;;;;;;;;;;20.00;99.90;;;;;;5025731;28;20412;-81
2022/07/26 13:07:25;;;;;;;;;;;19.90;99.90;;;;;;5026465;28;20866;-81
2022/07/26 13:09:50;;;;;;;;;;;19.70;99.90;;;;;;5027669;28;19921;-81
2022/07/26 13:12:16;;;;;;;;;;;19.70;99.90;;;;;;5037066;28;19913;-79
2022/07/26 13:14:41;;;;;;;;;;;19.90;99.90;;;;;;5033054;28;19914;-81
2022/07/26 13:17:08;;;;;;;;;;;19.80;99.90;;;;;;5039421;28;19927;-77
2022/07/26 13:19:34;;;;;;;;;;;19.90;99.90;;;;;;5033533;28;19959;-85
2022/07/26 13:22:00;;;;;;;;;;;20.40;99.90;;;;;;5028407;28;20190;-75
2022/07/26 13:24:26;;;;;;;;;;;21.00;99.70;;;;;;5032467;28;20020;-79
2022/07/26 13:26:52;;;;;;;;;;;21.10;99.90;;;;;;5034485;28;19923;-75
2022/07/26 13:29:18;;;;;;;;;;;21.20;98.00;;;;;;5034417;28;19909;-85
2022/07/26 13:31:43;;;;;;;;;;;21.10;99.90;;;;;;5035593;28;19949;-82
2022/07/26 13:34:09;;;;;;;;;;;21.10;98.90;;;;;;5035695;28;19909;-80
2022/07/26 13:36:35;;;;;;;;;;;21.20;99.50;;;;;;5035851;28;19913;-81
2022/07/26 13:39:00;;;;;;;;;;;21.50;99.00;;;;;;5031154;28;20305;-85
2022/07/26 13:41:27;;;;;;;;;;;21.60;97.50;;;;;;5034595;28;19921;-80
2022/07/26 13:43:54;;;;;;;;;;;21.20;97.60;;;;;;5035328;28;20320;-84
2022/07/26 13:46:20;;;;;;;;;;;20.80;99.10;;;;;;5027552;28;19920;-88
2022/07/26 13:48:46;;;;;;;;;;;20.40;99.60;;;;;;5031001;28;20001;-83
2022/07/26 13:51:12;;;;;;;;;;;20.40;99.90;;;;;;5034056;28;20312;-80
2022/07/26 13:53:38;;;;;;;;;;;20.20;99.80;;;;;;5036695;28;19975;-86
2022/07/26 13:56:04;;;;;;;;;;;19.90;99.10;;;;;;5039044;28;19952;-82
2022/07/26 13:58:31;;;;;;;;;;;20.10;99.90;;;;;;5047261;28;19916;-85
2022/07/26 14:00:57;;;;;;;;;;;20.30;99.00;;;;;;5038258;28;19909;-78
2022/07/26 14:03:22;;;;;;;;;;;20.60;99.10;;;;;;5033617;28;19913;-82
2022/07/26 14:05:48;;;;;;;;;;;20.80;98.40;;;;;;5033293;28;19909;-81
2022/07/26 14:08:13;;;;;;;;;;;20.70;97.80;;;;;;5034479;28;19913;-82
2022/07/26 14:10:39;;;;;;;;;;;20.70;98.40;;;;;;5035643;28;19921;-83
2022/07/26 14:13:05;;;;;;;;;;;20.60;99.20;;;;;;5031897;28;20027;-80
2022/07/26 14:15:31;;;;;;;;;;;20.80;98.20;;;;;;5035151;28;19979;-88